• Join FlightAware (Why Join?)
  • Login
  • US Flag 
04:26PM EDT


 

Airport Tracker/Info


-or-


 

Live Flight TrackerFlight Track Log ✈ SWA508 ✈ 29-Apr-2013 ✈ KPHL - KBNA

Flight Track Log - Related Links

Times and Time Zones

All times are in EDT time to prevent confusion due to time zone crossing. See the SWA508 flight status page for this flight to view local times or setup timezone preferences in your user account.

Time Position Orientation Groundspeed Altitude Reporting Facility
EDT Latitude Longitude Course Direction KTS MPH feet Rate Location/Type
05:02PM 39.9625 -75.1744 29° Northeast 176 203 7,900  Level New York Center
05:03PM 39.9681 -75.2508 275° West 213 245 10,000 1,020 Climbing New York Center
05:04PM 39.9556 -75.3611 262° West 276 318 10,000  Level New York Center
05:05PM 39.9428 -75.4711 261° West 336 387 10,000 300 Level New York Center
05:06PM 39.9244 -75.6161 261° West 348 400 10,700 780 Climbing New York Center
05:07PM 39.8986 -75.7333 254° West 348 400 11,600 2,160 Climbing New York Center
05:08PM 39.8706 -75.8531 253° West 353 406 15,200 3,240 Climbing New York Center
05:09PM 39.8444 -75.9756 255° West 353 406 18,000 3,120 Climbing New York Center
05:10PM 39.8181 -76.0953 254° West 366 421 21,400 2,460 Climbing New York Center
05:11PM 39.7806 -76.2358 251° West 376 433 23,000 1,800 Climbing New York Center
05:12PM 39.7492 -76.3711 253° West 381 438 25,100 2,100 Climbing New York Center
05:13PM 39.7292 -76.4683 255° West 390 449 26,900 2,340 Climbing Washington Center
05:14PM 39.6864 -76.6189 250° West 398 458 29,300 2,580 Climbing Washington Center
05:15PM 39.6539 -76.7611 254° West 404 465 32,000 2,520 Climbing Washington Center
05:16PM 39.6211 -76.8981 253° West 409 471 34,500 2,040 Climbing Washington Center
05:17PM 39.5864 -77.0347 252° West 403 464 36,100 1,500 Climbing Washington Center
05:18PM 39.5533 -77.1714 253° West 403 464 37,500 1,200 Climbing Washington Center
05:19PM 39.5203 -77.3106 253° West 403 464 38,600 1,200 Climbing Washington Center
05:20PM 39.4869 -77.4497 253° West 403 464 40,000 660 Climbing Washington Center
05:21PM 39.4511 -77.5911 252° West 408 470 40,000  Level Washington Center
05:22PM 39.4133 -77.7325 251° West 408 470 40,000  Level Washington Center
05:23PM 39.3775 -77.8683 251° West 408 470 40,000  Level Washington Center
05:24PM 39.3250 -77.9983 242° Southwest 408 470 40,000  Level Washington Center
05:25PM 39.2744 -78.1306 244° Southwest 413 475 40,000  Level Washington Center
05:26PM 39.2214 -78.2600 242° Southwest 413 475 40,000  Level Washington Center
05:27PM 39.1706 -78.3919 244° Southwest 413 475 40,000  Level Washington Center
05:28PM 39.1175 -78.5211 242° Southwest 413 475 40,000  Level Washington Center
05:29PM 39.0642 -78.6500 242° Southwest 413 475 40,000  Level Washington Center
05:30PM 39.0131 -78.7786 243° Southwest 408 470 40,000  Level Washington Center
05:31PM 38.9617 -78.9047 242° Southwest 402 463 40,000  Level Washington Center
05:32PM 38.9100 -79.0331 243° Southwest 402 463 40,000  Level Washington Center
05:33PM 38.8561 -79.1639 242° Southwest 402 463 40,000  Level Washington Center
05:34PM 38.8250 -79.2956 253° West 402 463 40,000  Level Washington Center
05:35PM 38.7997 -79.4356 257° West 402 463 40,000  Level Washington Center
05:36PM 38.7789 -79.5675 259° West 402 463 40,000  Level Washington Center
05:37PM 38.7511 -79.7072 256° West 414 476 40,000  Level Washington Center
05:38PM 38.7025 -79.9553 256° West 405 466 40,000  Level Indianapolis Center
05:39PM 38.6756 -80.0967 256° West 407 468 40,000  Level Indianapolis Center
05:40PM 38.6500 -80.2353 257° West 403 464 40,000  Level Indianapolis Center
05:41PM 38.6242 -80.3750 257° West 403 464 40,000  Level Indianapolis Center
05:42PM 38.5975 -80.5147 256° West 403 464 40,000  Level Indianapolis Center
05:43PM 38.5750 -80.6569 259° West 407 468 40,000  Level Indianapolis Center
05:44PM 38.5597 -80.8017 262° West 410 472 40,000  Level Indianapolis Center
05:46PM 38.5392 -80.9739 261° West 410 472 40,000  Level Indianapolis Center
05:47PM 38.5217 -81.1178 261° West 408 470 40,000  Level Indianapolis Center
05:48PM 38.5053 -81.2603 262° West 405 466 40,000  Level Indianapolis Center
05:49PM 38.4889 -81.4039 262° West 403 464 40,000  Level Indianapolis Center
05:50PM 38.4747 -81.5494 263° West 406 467 40,000  Level Indianapolis Center
05:51PM 38.4433 -81.6892 254° West 407 468 40,000  Level Indianapolis Center
05:52PM 38.4022 -81.8233 249° West 406 467 40,000  Level Indianapolis Center
05:53PM 38.3608 -81.9578 249° West 406 467 40,000  Level Indianapolis Center
05:54PM 38.3192 -82.0925 249° West 408 470 40,000  Level Indianapolis Center
05:55PM 38.2697 -82.2539 249° West 408 470 40,000  Level Indianapolis Center
05:56PM 38.2272 -82.3867 248° West 407 468 40,000  Level Indianapolis Center
05:57PM 38.1833 -82.5283 249° West 409 471 40,000  Level Indianapolis Center
05:58PM 38.1406 -82.6625 248° West 409 471 40,000  Level Indianapolis Center
05:59PM 38.0786 -82.7850 237° Southwest 409 471 40,000  Level Indianapolis Center
06:00PM 38.0181 -82.9089 238° Southwest 413 475 40,000  Level Indianapolis Center
06:01PM 37.9467 -83.0556 238° Southwest 419 482 40,000  Level Indianapolis Center
06:02PM 37.8844 -83.1781 237° Southwest 416 479 40,000 -300 Level Indianapolis Center
06:03PM 37.8239 -83.3033 239° Southwest 417 480 39,400 -720 Descending Indianapolis Center
06:04PM 37.7611 -83.4278 237° Southwest 419 482 38,500 -900 Descending Indianapolis Center
06:05PM 37.6992 -83.5550 238° Southwest 424 488 37,600 -780 Descending Indianapolis Center
06:06PM 37.6256 -83.7000 237° Southwest 422 486 37,000 -600 Descending Indianapolis Center
06:07PM 37.5622 -83.8281 238° Southwest 429 494 36,400 -780 Descending Indianapolis Center
06:08PM 37.4967 -83.9567 237° Southwest 435 501 35,500 -960 Descending Indianapolis Center
06:09PM 37.4306 -84.0869 237° Southwest 439 505 34,500 -1,020 Descending Indianapolis Center
06:10PM 37.3656 -84.2169 238° Southwest 439 505 33,500 -780 Descending Indianapolis Center
06:11PM 37.2917 -84.3600 237° Southwest 422 486 33,000 -300 Descending Indianapolis Center
06:12PM 37.2283 -84.4847 237° Southwest 423 487 33,000  Level Indianapolis Center
06:13PM 37.1636 -84.6108 237° Southwest 430 495 33,000  Level Indianapolis Center
06:14PM 37.0997 -84.7325 237° Southwest 423 487 33,000 -660 Level Indianapolis Center
06:16PM 37.0364 -84.8561 237° Southwest 424 488 31,700 -1,260 Descending Indianapolis Center
06:17PM 36.9722 -84.9800 237° Southwest 424 488 30,400 -2,040 Descending Indianapolis Center
06:18PM 36.8950 -85.1269 237° Southwest 422 486 27,600 -2,520 Descending Indianapolis Center
06:19PM 36.8333 -85.2456 237° Southwest 409 471 25,300 -2,340 Descending Indianapolis Center
06:20PM 36.7725 -85.3600 236° Southwest 399 459 22,800 -1,620 Descending Indianapolis Center
06:21PM 36.7131 -85.4833 239° Southwest 403 464 22,000 -420 Descending Memphis Center
06:22PM 36.6611 -85.5900 239° Southwest 394 453 22,000 -240 Level Memphis Center
06:23PM 36.6031 -85.7097 239° Southwest 404 465 21,600 -1,680 Descending Memphis Center
06:24PM 36.5431 -85.8369 240° Southwest 396 456 18,700 -2,700 Descending Memphis Center
06:25PM 36.4908 -85.9458 239° Southwest 389 448 16,200 -2,520 Descending Memphis Center
06:26PM 36.4406 -86.0569 241° Southwest 378 435 13,700 -2,460 Descending Memphis Center
06:27PM 36.3917 -86.1575 239° Southwest 363 418 11,300 -1,680 Descending Memphis Center
06:28PM 36.3469 -86.2472 238° Southwest 358 412 10,400 -900 Descending Memphis Center
06:29PM 36.3039 -86.3369 239° Southwest 330 380 9,500 -1,200 Descending Memphis Center
06:30PM 36.2650 -86.4186 239° Southwest 296 341 8,000 -1,500 Descending Memphis Center
06:31PM 36.2258 -86.5003 239° Southwest 278 320 6,600 -1,200 Descending Memphis Center
06:32PM 36.1603 -86.5394 206° Southwest 262 302 5,700 -840 Descending Memphis Center
06:33PM 36.0903 -86.5711 200° South 254 292 5,000 -1,260 Descending Memphis Center
06:34PM 36.0328 -86.5967 200° South 232 267 3,200 -1,320 Descending Memphis Center
06:35PM 36.0344 -86.6583 272° West 150 173 2,400 -840 Descending Memphis Center
06:36PM 36.0644 -86.6825 327° Northwest 124 143 1,600 -780 Descending Memphis Center
06:37PM 36.0997 -86.6733 12° North 101 116 900 -720 Descending Memphis Center
06:39PM 36.1167 -86.6667 287° West  Level FlightAware Approximate
06:46PM 36.1245 -86.6782 287° West  Level Estimated
06:47PM 36.1245 -86.6782 287° West  Level Estimated
06:48PM 36.1245 -86.6782 287° West  Level Estimated
06:49PM 36.1245 -86.6782 287° West  Level Estimated
06:50PM 36.1245 -86.6782 287° West  Level Estimated
06:51PM 36.1245 -86.6782 287° West  Level Estimated
06:52PM 36.1245 -86.6782 287° West  Level Estimated
06:53PM 36.1245 -86.6782 287° West  Level Estimated